CheckWX is a tool to help pilots better visualize weather data.  It is not intended as a substitute for an official pre-flight weather briefing.

08:22:38 UTC

EGVP TAF
Middle Wallop Airfield Airport
Middle Wallop, United Kingdom
TAF EGVP 190656Z 1907/1915 VRB02KT 6000 BR BKN035 TEMPO 1907/1909 3000 SCT005 BECMG 1909/1911 9999 NSW TEMPO 1909/1911 SCT012 TEMPO 1911/1915 SCT018

Mar-19@
07:00 UTC

Mar-19 @ 07:00 UTC

Mar-19@
09:00 UTC

Mar-19 @ 09:00 UTC

TAF EGVP 190656Z 1907/1915 VRB02KT 6000 BR BKN035
Wind
  • Variable at 2 KTS
Conditions
Mist
Cloud Levels
  • Broken at 3,500' AGL

Mar-19@
07:00 UTC

Mar-19 @ 07:00 UTC

Mar-19@
09:00 UTC

Mar-19 @ 09:00 UTC

TEMPO 1907/1909 3000 SCT005

Temporary

Temporary Changes expected for less than half the time period

Cloud Levels
  • Scattered at 500' AGL

Mar-19@
09:00 UTC

Mar-19 @ 09:00 UTC

Mar-19@
11:00 UTC

Mar-19 @ 11:00 UTC

TEMPO 1909/1911 SCT012

Temporary

Temporary Changes expected for less than half the time period

Cloud Levels
  • Scattered at 1,200' AGL

Mar-19@
09:00 UTC

Mar-19 @ 09:00 UTC

Mar-19@
15:00 UTC

Mar-19 @ 15:00 UTC

BECMG 1909/1911 9999 NSW

Becoming

Becoming Conditions expected by Tue, Mar 19, 2019 @ 11:00 UTC

Wind
  • Variable at 2 KTS
Conditions
No significant weather
Cloud Levels
  • Broken at 3,500' AGL

Mar-19@
11:00 UTC

Mar-19 @ 11:00 UTC

Mar-19@
15:00 UTC

Mar-19 @ 15:00 UTC

TEMPO 1911/1915 SCT018

Temporary

Temporary Changes expected for less than half the time period

Cloud Levels
  • Scattered at 1,800' AGL